createdAt,value
2019-03-18T00:01:58.516Z,95130.56
2019-03-18T00:04:29.727Z,95136.02
2019-03-18T00:07:00.967Z,95127.11
2019-03-18T00:09:32.042Z,95112.33
2019-03-18T00:12:03.270Z,95109.45
2019-03-18T00:14:34.468Z,95110.45
2019-03-18T00:17:05.733Z,95112.74
2019-03-18T00:19:36.947Z,95110.19
2019-03-18T00:22:08.194Z,95121.31
2019-03-18T00:24:39.324Z,95129.73
2019-03-18T00:27:10.450Z,95135.53
2019-03-18T00:29:42.800Z,95119.58
2019-03-18T00:32:14.227Z,95125.71
2019-03-18T00:34:45.299Z,95122.29
2019-03-18T00:37:16.701Z,95126.04
2019-03-18T00:39:47.925Z,95132.59
2019-03-18T00:42:19.037Z,95130.20
2019-03-18T00:44:50.266Z,95128.62
2019-03-18T00:47:21.631Z,95136.30
2019-03-18T00:49:52.861Z,95140.34
2019-03-18T00:52:24.399Z,95139.80
2019-03-18T00:54:55.915Z,95137.61
2019-03-18T00:57:27.160Z,95154.45
2019-03-18T00:59:58.248Z,95164.61
2019-03-18T01:02:29.511Z,95169.81
2019-03-18T01:05:00.663Z,95169.92
2019-03-18T01:07:31.853Z,95183.48
2019-03-18T01:10:03.263Z,95172.49
2019-03-18T01:12:34.469Z,95176.37
2019-03-18T01:15:06.238Z,95171.24
2019-03-18T01:17:37.525Z,95180.69
2019-03-18T01:20:08.834Z,95173.04
2019-03-18T01:22:40.173Z,95171.36
2019-03-18T01:25:12.471Z,95171.02
2019-03-18T01:27:44.085Z,95173.33
2019-03-18T01:30:15.599Z,95176.08
2019-03-18T01:32:46.782Z,95176.16
2019-03-18T01:35:18.117Z,95167.34
2019-03-18T01:37:49.243Z,95164.67
2019-03-18T01:40:20.569Z,95165.23
2019-03-18T01:42:51.764Z,95167.61
2019-03-18T01:45:22.931Z,95168.13
2019-03-18T01:47:54.314Z,95160.85
2019-03-18T01:50:25.536Z,95169.30
2019-03-18T01:52:56.765Z,95166.31
2019-03-18T01:55:27.977Z,95160.70
2019-03-18T01:57:59.157Z,95150.70
2019-03-18T02:00:30.413Z,95152.95
2019-03-18T02:03:01.633Z,95149.00
2019-03-18T02:05:32.964Z,95146.25
2019-03-18T02:08:04.263Z,95143.25
2019-03-18T02:10:35.512Z,95153.31
2019-03-18T02:13:06.818Z,95151.16
2019-03-18T02:15:38.057Z,95149.20
2019-03-18T02:18:09.258Z,95148.38
2019-03-18T02:20:40.407Z,95140.17
2019-03-18T02:23:11.651Z,95146.34
2019-03-18T02:25:42.900Z,95130.78
2019-03-18T02:28:14.412Z,95127.91
2019-03-18T02:30:45.703Z,95135.83
2019-03-18T02:33:16.889Z,95141.38
2019-03-18T02:35:48.070Z,95147.79
2019-03-18T02:38:19.254Z,95152.85
2019-03-18T02:40:50.407Z,95165.41
2019-03-18T02:43:21.756Z,95154.54
2019-03-18T02:46:08.970Z,95151.96
2019-03-18T02:48:28.679Z,95162.45
2019-03-18T02:50:59.850Z,95172.59
2019-03-18T02:53:30.958Z,95176.81
2019-03-18T02:56:02.125Z,95169.61
2019-03-18T02:58:33.386Z,95169.09
2019-03-18T03:01:05.039Z,95173.00
2019-03-18T03:03:37.153Z,95181.34
2019-03-18T03:06:09.617Z,95185.39
2019-03-18T03:08:40.872Z,95195.48
2019-03-18T03:11:12.160Z,95185.17
2019-03-18T03:13:43.594Z,95187.25
2019-03-18T03:16:26.449Z,95188.46
2019-03-18T03:18:47.523Z,95185.30
2019-03-18T03:21:18.683Z,95176.72
2019-03-18T03:23:49.763Z,95185.43
2019-03-18T03:26:20.983Z,95178.16
2019-03-18T03:28:52.186Z,95159.78
2019-03-18T03:31:23.355Z,95155.44
2019-03-18T03:33:54.988Z,95162.33
2019-03-18T03:36:26.228Z,95143.92
2019-03-18T03:38:57.467Z,95139.68
2019-03-18T03:41:28.740Z,95150.83
2019-03-18T03:43:59.931Z,95159.05
2019-03-18T03:46:43.171Z,95162.13
2019-03-18T03:49:04.252Z,95171.78
2019-03-18T03:51:35.552Z,95168.42
2019-03-18T03:54:06.755Z,95171.60
2019-03-18T03:56:38.267Z,95170.36
2019-03-18T03:59:09.606Z,95166.23
2019-03-18T04:01:41.771Z,95166.30
2019-03-18T04:04:13.231Z,95168.22
2019-03-18T04:06:44.542Z,95158.82
2019-03-18T04:09:15.675Z,95161.20
2019-03-18T04:11:46.889Z,95163.96
2019-03-18T04:14:18.073Z,95171.48
2019-03-18T04:17:00.851Z,95172.28
2019-03-18T04:19:22.316Z,95161.94
2019-03-18T04:21:53.456Z,95154.27
2019-03-18T04:24:24.622Z,95158.66
2019-03-18T04:26:55.843Z,95163.47
2019-03-18T04:29:26.939Z,95160.98
2019-03-18T04:31:58.053Z,95162.08
2019-03-18T04:34:29.201Z,95164.97
2019-03-18T04:37:00.396Z,95174.83
2019-03-18T04:39:31.559Z,95171.80
2019-03-18T04:42:02.792Z,95167.31
2019-03-18T04:44:33.861Z,95167.42
2019-03-18T04:47:14.220Z,95159.73
2019-03-18T04:49:37.984Z,95161.79
2019-03-18T04:52:09.131Z,95164.14
2019-03-18T04:54:40.322Z,95167.34
2019-03-18T04:57:11.453Z,95171.57
2019-03-18T04:59:42.733Z,95177.98
2019-03-18T05:02:16.609Z,95189.30
2019-03-18T05:04:47.928Z,95186.47
2019-03-18T05:07:19.172Z,95185.17
2019-03-18T05:09:50.786Z,95178.55
2019-03-18T05:12:23.386Z,95180.12
2019-03-18T05:14:55.089Z,95185.38
2019-03-18T05:17:27.098Z,95184.34
2019-03-18T05:20:01.097Z,95185.42
2019-03-18T05:22:32.958Z,95180.99
2019-03-18T05:25:04.380Z,95173.73
2019-03-18T05:27:35.565Z,95161.13
2019-03-18T05:30:07.638Z,95159.11
2019-03-18T05:32:38.868Z,95158.77
2019-03-18T05:35:10.112Z,95167.16
2019-03-18T05:37:41.609Z,95173.28
2019-03-18T05:40:13.128Z,95177.16
2019-03-18T05:42:44.302Z,95182.73
2019-03-18T05:45:15.514Z,95184.13
2019-03-18T05:47:46.619Z,95187.48
2019-03-18T05:50:18.195Z,95191.32
2019-03-18T05:52:49.392Z,95189.98
2019-03-18T05:55:20.769Z,95183.91
2019-03-18T05:57:51.899Z,95192.81
2019-03-18T06:00:23.177Z,95201.31
2019-03-18T06:02:54.428Z,95200.88
2019-03-18T06:05:25.684Z,95205.93
2019-03-18T06:07:56.932Z,95212.16
2019-03-18T06:10:28.101Z,95212.59
2019-03-18T06:12:59.205Z,95216.39
2019-03-18T06:15:30.439Z,95218.92
2019-03-18T06:18:01.691Z,95220.44
2019-03-18T06:20:39.743Z,95227.14
2019-03-18T06:23:10.912Z,95230.06
2019-03-18T06:25:43.175Z,95235.29
2019-03-18T06:28:14.461Z,95231.30
2019-03-18T06:30:45.629Z,95227.72
2019-03-18T06:33:16.795Z,95231.52
2019-03-18T06:35:48.006Z,95237.32
2019-03-18T06:38:19.250Z,95235.28
2019-03-18T06:40:50.745Z,95231.52
2019-03-18T06:43:21.910Z,95232.88
2019-03-18T06:45:53.026Z,95241.91
2019-03-18T06:48:24.199Z,95247.66
2019-03-18T06:50:55.484Z,95255.25
2019-03-18T06:53:26.733Z,95259.59
2019-03-18T06:55:58.139Z,95257.30
2019-03-18T06:58:29.353Z,95263.66
2019-03-18T07:01:00.656Z,95262.70
2019-03-18T07:03:31.814Z,95257.48
2019-03-18T07:06:02.982Z,95254.33
2019-03-18T07:08:35.235Z,95268.76
2019-03-18T07:11:06.390Z,95277.19
2019-03-18T07:13:37.537Z,95277.08
2019-03-18T07:16:08.763Z,95277.89
2019-03-18T07:18:39.938Z,95282.80
2019-03-18T07:21:11.165Z,95289.27
2019-03-18T07:23:42.320Z,95287.81
2019-03-18T07:26:13.534Z,95287.31
2019-03-18T07:28:44.705Z,95292.95
2019-03-18T07:31:16.039Z,95295.95
2019-03-18T07:33:47.152Z,95302.89
2019-03-18T07:36:18.444Z,95298.72
2019-03-18T07:38:49.660Z,95306.72
2019-03-18T07:41:20.847Z,95307.81
2019-03-18T07:43:52.027Z,95298.09
2019-03-18T07:46:23.300Z,95293.76
2019-03-18T07:48:54.520Z,95291.22
2019-03-18T07:51:25.763Z,95288.30
2019-03-18T07:53:58.015Z,95289.40
2019-03-18T07:56:29.193Z,95289.25
2019-03-18T07:59:00.319Z,95298.97
2019-03-18T08:01:31.427Z,95303.80
2019-03-18T08:04:02.590Z,95305.13
2019-03-18T08:06:33.747Z,95307.22
2019-03-18T08:09:07.802Z,95318.44
2019-03-18T08:11:39.332Z,95321.75
2019-03-18T08:14:10.480Z,95326.97
2019-03-18T08:16:41.840Z,95326.75
2019-03-18T08:19:12.905Z,95329.89
2019-03-18T08:21:44.001Z,95321.50
2019-03-18T08:24:15.126Z,95321.73
2019-03-18T08:26:46.393Z,95316.47
2019-03-18T08:29:17.435Z,95327.70
2019-03-18T08:31:48.621Z,95331.92
2019-03-18T08:34:19.935Z,95331.58
2019-03-18T08:36:51.018Z,95332.99
2019-03-18T08:39:22.192Z,95338.98
2019-03-18T08:41:53.383Z,95341.69
2019-03-18T08:44:24.536Z,95340.05
2019-03-18T08:46:55.699Z,95349.93
2019-03-18T08:49:26.835Z,95348.25
2019-03-18T08:51:57.950Z,95360.17
2019-03-18T08:54:29.349Z,95359.25
2019-03-18T08:57:00.761Z,95362.17
2019-03-18T08:59:32.088Z,95355.59
2019-03-18T09:02:03.210Z,95358.41
2019-03-18T09:04:34.375Z,95356.77
2019-03-18T09:07:05.627Z,95367.75
2019-03-18T09:09:36.770Z,95371.94
2019-03-18T09:12:08.004Z,95370.80
2019-03-18T09:14:39.083Z,95383.58
2019-03-18T09:17:10.565Z,95382.52
2019-03-18T09:19:42.713Z,95378.86
2019-03-18T09:22:13.900Z,95377.34
2019-03-18T09:24:45.164Z,95381.22
2019-03-18T09:27:16.359Z,95380.83
2019-03-18T09:29:47.659Z,95378.24
2019-03-18T09:32:19.022Z,95376.39
2019-03-18T09:34:50.219Z,95382.69
2019-03-18T09:37:21.538Z,95385.00
2019-03-18T09:39:52.816Z,95387.83
2019-03-18T09:42:24.560Z,95389.05
2019-03-18T09:44:55.705Z,95403.11
2019-03-18T09:47:26.921Z,95397.91
2019-03-18T09:49:57.999Z,95398.59
2019-03-18T09:52:29.103Z,95392.77
2019-03-18T09:55:00.381Z,95396.13
2019-03-18T09:57:31.613Z,95398.66
2019-03-18T10:00:02.906Z,95392.53
2019-03-18T10:02:34.152Z,95393.80
2019-03-18T10:05:05.927Z,95393.91
2019-03-18T10:15:26.861Z,95389.56
2019-03-18T10:17:57.847Z,95393.64
2019-03-18T10:20:28.866Z,95395.56
2019-03-18T10:23:02.808Z,95399.11
2019-03-18T10:25:33.811Z,95399.58
2019-03-18T10:28:04.866Z,95394.88
2019-03-18T10:30:35.928Z,95401.97
2019-03-18T10:33:06.941Z,95415.50
2019-03-18T10:35:38.023Z,95417.28
2019-03-18T10:38:09.044Z,95413.00
2019-03-18T10:40:40.054Z,95423.23
2019-03-18T10:43:11.043Z,95420.44
2019-03-18T10:45:42.034Z,95416.59
2019-03-18T10:48:13.013Z,95416.38
2019-03-18T10:50:44.014Z,95419.77
2019-03-18T10:53:15.030Z,95420.27
2019-03-18T10:55:45.993Z,95417.59
2019-03-18T10:58:18.218Z,95414.73
2019-03-18T11:00:49.592Z,95410.20
2019-03-18T11:03:20.686Z,95418.95
2019-03-18T11:05:51.836Z,95428.98
2019-03-18T11:08:22.913Z,95425.33
2019-03-18T11:10:54.076Z,95437.05
2019-03-18T11:13:25.048Z,95436.52
2019-03-18T11:15:56.033Z,95448.83
2019-03-18T11:18:27.034Z,95466.84
2019-03-18T11:20:58.017Z,95464.05
2019-03-18T11:23:28.995Z,95470.23
2019-03-18T11:25:59.983Z,95467.42
2019-03-18T11:28:30.976Z,95473.24
2019-03-18T11:31:02.053Z,95467.38
2019-03-18T11:33:33.179Z,95468.22
